Hlavní strana
METAR-TAF:

METAR-TAF

Letiště :

Letiště Vodochody

Praha, Česká republika

zeměpisná šířka: 50-12-59N, zeměpisná délka: 014-23-42E, výška: 280 m

Aktuální stav počasí

Zpráva byla vytvořena před 1 hodinou a 13 minutami, v 10:00 UTC
Východojihovýchodní vítr 6 kt, proměnlivý mezi severovýchodním a jižním
Teplota 22°C
Vlhkost vzduchu 53%
Tlak 1020 hPa
Viditelnost 10 km a více
Skoro jasno ve výšce 4200 ft

METAR: LKVO 251000Z 12006KT 040V190 9999 FEW042 22/12 Q1020

Čas: 13:13 (11:13 UTC)


TAF: chybějící

Stav a předpovědi počasí z více než 4 000 letišť (zprávy METAR a TAF).

Červené a žluté tečky na mapě představují dostupné meteorologické stanice.

Když kurzor umístíte na tečku, zobrazí se název stanice.

Pak kliknutím zobrazíte stav a předpověď počasí.

Chcete-li změnit mapu, kliknutím na zelené tlačítko se znaménkem +mapu přiblížíte, kliknutím na zelené tlačítko se znaménkem – mapu oddálíte a kliknutím na zelené šipky přejdete na sousední mapy.


METAR-TAF: